Time;durP1;ratioP1;P1;durP2;ratioP2;P2;SDS_P1;SDS_P2;PMS_P1;PMS_P2;Temp;Humidity;BMP_temperature;BMP_pressure;BME280_temperature;BME280_humidity;BME280_pressure;Samples;Min_cycle;Max_cycle;Signal;HPM_P1;HPM_P2
2020/12/04 00:00:12;;;;;;;2.97;2.75;;;7.40;77.10;;;;;;5027783;28;20034;-75
2020/12/04 00:02:39;;;;;;;3.10;2.80;;;7.40;77.10;;;;;;5026831;28;20413;-74
2020/12/04 00:05:05;;;;;;;3.08;2.78;;;7.30;76.90;;;;;;5028110;28;20033;-75
2020/12/04 00:07:32;;;;;;;2.83;2.63;;;7.40;77.10;;;;;;5027816;28;20065;-75
2020/12/04 00:09:58;;;;;;;3.30;3.00;;;7.30;76.90;;;;;;5028003;28;20448;-73
2020/12/04 00:12:24;;;;;;;2.90;2.70;;;7.40;77.10;;;;;;5027596;28;20124;-75
2020/12/04 00:14:50;;;;;;;3.55;3.25;;;7.30;76.90;;;;;;5027428;28;20104;-75
2020/12/04 00:17:16;;;;;;;3.35;3.08;;;7.30;76.90;;;;;;5027525;28;20052;-75
2020/12/04 00:19:43;;;;;;;3.20;2.83;;;7.30;76.90;;;;;;5027763;28;20432;-74
2020/12/04 00:22:09;;;;;;;3.20;2.90;;;7.30;76.90;;;;;;5027663;28;20224;-75
2020/12/04 00:24:35;;;;;;;3.47;3.17;;;7.30;76.90;;;;;;5027102;28;20044;-75
2020/12/04 00:27:01;;;;;;;2.88;2.67;;;7.30;76.90;;;;;;5027598;28;20087;-75
2020/12/04 00:29:28;;;;;;;4.82;3.13;;;7.30;76.90;;;;;;5026104;28;20029;-74
2020/12/04 00:31:55;;;;;;;3.42;3.13;;;7.30;76.90;;;;;;5025543;28;20030;-74
2020/12/04 00:34:21;;;;;;;3.03;2.72;;;7.30;76.90;;;;;;5027452;28;20072;-75
2020/12/04 00:36:48;;;;;;;3.08;2.78;;;7.30;76.90;;;;;;5009173;28;20372;-75
2020/12/04 00:39:14;;;;;;;3.60;3.22;;;7.30;76.90;;;;;;5025505;28;20026;-74
2020/12/04 00:41:41;;;;;;;3.63;3.30;;;7.20;76.70;;;;;;5025818;28;20083;-74
2020/12/04 00:44:07;;;;;;;3.30;3.00;;;7.20;76.70;;;;;;5025468;28;20116;-75
2020/12/04 00:46:33;;;;;;;3.65;2.95;;;7.20;76.70;;;;;;5026206;28;20582;-75
2020/12/04 00:48:59;;;;;;;3.42;3.13;;;7.20;76.70;;;;;;5024354;28;20036;-75
2020/12/04 00:51:26;;;;;;;3.53;2.65;;;7.30;76.90;;;;;;5025122;28;20022;-75
2020/12/04 00:53:56;;;;;;;4.38;3.95;;;7.20;76.70;;;;;;5025218;28;20041;-75
2020/12/04 00:56:31;;;;;;;3.50;3.20;;;7.20;76.70;;;;;;5025392;28;20064;-75
2020/12/04 00:58:58;;;;;;;3.47;3.17;;;7.20;76.70;;;;;;5008649;28;20064;-74
2020/12/04 01:01:24;;;;;;;3.50;3.20;;;7.20;76.70;;;;;;5026527;28;20036;-75
2020/12/04 01:03:50;;;;;;;3.33;3.03;;;7.20;76.70;;;;;;5026686;28;20601;-75
2020/12/04 01:06:16;;;;;;;3.30;3.00;;;7.20;76.70;;;;;;5026683;28;20049;-75
2020/12/04 01:08:43;;;;;;;3.72;3.35;;;7.20;76.70;;;;;;5026228;28;20381;-75
2020/12/04 01:11:09;;;;;;;3.67;3.38;;;7.20;76.70;;;;;;5025396;28;20167;-75
2020/12/04 01:13:35;;;;;;;3.00;2.75;;;7.20;76.60;;;;;;5025534;28;20041;-75
2020/12/04 01:16:02;;;;;;;3.40;3.10;;;7.20;76.60;;;;;;5041171;28;20120;-75
2020/12/04 01:18:29;;;;;;;3.97;3.28;;;7.20;76.60;;;;;;5024804;28;20063;-75
2020/12/04 01:20:56;;;;;;;3.55;3.20;;;7.20;76.60;;;;;;5024882;28;20529;-75
2020/12/04 01:23:22;;;;;;;3.10;2.80;;;7.20;76.60;;;;;;5026298;28;20045;-75
2020/12/04 01:25:48;;;;;;;3.28;3.08;;;7.20;76.60;;;;;;5024927;28;20496;-75
2020/12/04 01:28:14;;;;;;;3.38;3.08;;;7.10;76.50;;;;;;5025068;28;20072;-76
2020/12/04 01:30:39;;;;;;;5.50;3.13;;;7.20;76.60;;;;;;5025006;28;20029;-75
2020/12/04 01:33:05;;;;;;;3.40;3.10;;;7.20;76.60;;;;;;5026789;28;20036;-74
2020/12/04 01:35:31;;;;;;;3.65;3.35;;;7.20;76.60;;;;;;5024666;28;20030;-74
2020/12/04 01:37:57;;;;;;;3.10;2.80;;;7.20;76.60;;;;;;5008283;28;20025;-75
2020/12/04 01:40:23;;;;;;;3.53;3.22;;;7.10;76.40;;;;;;5025024;28;20195;-75
2020/12/04 01:42:49;;;;;;;4.25;3.42;;;7.10;76.40;;;;;;5024724;28;20037;-75
2020/12/04 01:45:15;;;;;;;3.42;3.13;;;7.10;76.40;;;;;;5026180;28;20037;-75
2020/12/04 01:47:41;;;;;;;3.47;3.03;;;7.10;76.40;;;;;;5025272;28;20473;-75
2020/12/04 01:50:07;;;;;;;3.53;3.20;;;7.10;76.40;;;;;;5024674;28;20527;-75
2020/12/04 01:52:33;;;;;;;3.45;3.15;;;7.10;76.40;;;;;;5026005;28;20476;-75
2020/12/04 01:55:00;;;;;;;3.53;3.22;;;7.10;76.40;;;;;;5024728;28;20053;-74
2020/12/04 01:57:33;;;;;;;3.40;3.10;;;7.10;76.40;;;;;;5025929;28;20040;-75
2020/12/04 01:59:59;;;;;;;3.67;3.38;;;7.10;76.50;;;;;;5025542;28;20026;-75
2020/12/04 02:02:25;;;;;;;4.93;3.38;;;7.00;76.30;;;;;;5026033;28;20428;-75
2020/12/04 02:04:51;;;;;;;3.85;3.55;;;7.00;76.30;;;;;;5024049;28;20030;-75
2020/12/04 02:07:27;;;;;;;3.40;3.10;;;7.00;76.30;;;;;;5024975;28;20029;-75
2020/12/04 02:10:02;;;;;;;4.03;3.63;;;7.00;76.30;;;;;;5025818;28;20369;-75
2020/12/04 02:12:29;;;;;;;3.75;3.45;;;7.00;76.30;;;;;;5024762;28;20032;-75
2020/12/04 02:14:56;;;;;;;3.58;3.28;;;7.00;76.30;;;;;;5023827;28;20560;-75
2020/12/04 02:17:31;;;;;;;3.70;3.40;;;7.00;76.30;;;;;;5024228;28;20356;-75
2020/12/04 02:19:57;;;;;;;3.53;3.22;;;7.00;76.30;;;;;;5024138;28;20029;-75
2020/12/04 02:22:23;;;;;;;3.95;3.65;;;7.00;76.30;;;;;;5024327;28;20117;-75
2020/12/04 02:24:52;;;;;;;4.05;3.75;;;7.00;76.30;;;;;;5024269;28;20414;-75
2020/12/04 02:27:18;;;;;;;3.70;3.40;;;7.00;76.30;;;;;;5026679;28;20081;-75
2020/12/04 02:29:44;;;;;;;4.07;3.78;;;7.00;76.30;;;;;;5028395;28;20104;-74
2020/12/04 02:32:11;;;;;;;3.67;3.38;;;7.00;76.80;;;;;;5028295;28;20045;-76
2020/12/04 02:34:37;;;;;;;3.20;2.95;;;7.00;76.30;;;;;;5029362;28;20029;-75
2020/12/04 02:37:05;;;;;;;3.60;3.30;;;7.00;76.30;;;;;;5028246;28;20040;-75
2020/12/04 02:39:31;;;;;;;4.00;3.67;;;7.00;76.30;;;;;;5029239;28;20132;-75
2020/12/04 02:41:57;;;;;;;3.45;3.20;;;7.00;76.30;;;;;;5029228;28;20451;-75
2020/12/04 02:44:23;;;;;;;3.88;3.42;;;7.00;76.30;;;;;;5011304;28;20095;-75
2020/12/04 02:46:49;;;;;;;3.80;3.20;;;7.00;76.30;;;;;;5006194;28;20053;-75
2020/12/04 02:49:15;;;;;;;6.18;3.50;;;6.90;76.10;;;;;;5020769;28;20022;-75
2020/12/04 02:51:44;;;;;;;3.78;3.42;;;6.90;76.10;;;;;;5012541;28;20034;-75
2020/12/04 02:54:11;;;;;;;3.78;3.47;;;6.90;76.10;;;;;;5012779;28;20034;-74
2020/12/04 02:56:37;;;;;;;3.88;3.47;;;6.90;76.10;;;;;;5012206;28;20075;-75
2020/12/04 02:59:03;;;;;;;3.63;3.33;;;6.90;76.10;;;;;;5013147;28;20175;-75
2020/12/04 03:01:29;;;;;;;3.78;3.47;;;6.90;76.10;;;;;;5010679;28;20034;-75
2020/12/04 03:03:55;;;;;;;3.95;3.65;;;6.90;76.10;;;;;;5012596;28;20045;-75
2020/12/04 03:06:21;;;;;;;3.92;3.63;;;6.90;76.10;;;;;;5011307;28;20037;-75
2020/12/04 03:08:47;;;;;;;3.83;3.53;;;6.90;76.10;;;;;;5010930;28;20140;-75
2020/12/04 03:11:12;;;;;;;3.88;3.53;;;6.90;76.10;;;;;;5027131;28;20037;-75
2020/12/04 03:13:40;;;;;;;3.47;3.17;;;6.90;76.10;;;;;;5027597;28;20168;-75
2020/12/04 03:16:05;;;;;;;3.55;3.25;;;6.80;75.90;;;;;;5010700;28;20030;-75
2020/12/04 03:18:31;;;;;;;3.70;3.35;;;6.90;76.10;;;;;;5012349;28;20177;-75
2020/12/04 03:20:57;;;;;;;3.47;3.17;;;6.90;76.00;;;;;;5014181;28;20123;-75
2020/12/04 03:23:23;;;;;;;3.92;3.55;;;6.80;75.90;;;;;;5020324;28;20136;-74
2020/12/04 03:25:49;;;;;;;3.88;3.58;;;6.80;75.90;;;;;;5010719;28;20117;-74
2020/12/04 03:28:15;;;;;;;3.47;3.17;;;6.80;75.90;;;;;;5011789;28;20038;-75
2020/12/04 03:30:41;;;;;;;3.88;3.58;;;6.80;75.90;;;;;;5012328;28;20030;-75
2020/12/04 03:33:07;;;;;;;3.80;3.50;;;6.80;75.90;;;;;;5011584;28;20022;-75
2020/12/04 03:35:33;;;;;;;3.30;3.00;;;6.70;75.70;;;;;;5012142;28;20493;-75
2020/12/04 03:37:58;;;;;;;3.47;3.17;;;6.70;75.70;;;;;;5025913;28;20026;-75
2020/12/04 03:40:24;;;;;;;3.50;3.20;;;6.70;75.80;;;;;;5013606;28;20061;-74
2020/12/04 03:42:50;;;;;;;3.83;3.53;;;6.70;75.80;;;;;;5027038;28;20038;-75
2020/12/04 03:45:16;;;;;;;3.85;3.55;;;6.70;75.80;;;;;;5029018;28;20119;-74
2020/12/04 03:47:42;;;;;;;3.05;2.83;;;6.70;75.80;;;;;;5013087;28;20505;-75
2020/12/04 03:50:08;;;;;;;4.05;3.75;;;6.60;75.70;;;;;;5013577;28;20036;-74
2020/12/04 03:52:34;;;;;;;3.67;3.38;;;6.60;75.70;;;;;;5031196;28;20041;-75
2020/12/04 03:55:00;;;;;;;4.18;3.47;;;6.70;75.90;;;;;;5030725;28;20033;-75
2020/12/04 03:57:26;;;;;;;3.53;3.05;;;6.60;75.70;;;;;;5031157;28;20366;-75
2020/12/04 03:59:52;;;;;;;3.53;3.22;;;6.60;75.70;;;;;;5031221;28;20032;-75
2020/12/04 04:02:18;;;;;;;3.42;3.13;;;6.60;75.80;;;;;;5042925;28;20040;-75
2020/12/04 04:04:44;;;;;;;4.13;3.17;;;6.60;75.80;;;;;;5050585;28;20349;-74
2020/12/04 04:07:10;;;;;;;5.05;2.90;;;6.60;75.80;;;;;;5049237;28;20323;-75
2020/12/04 04:09:36;;;;;;;3.80;3.50;;;6.60;75.80;;;;;;5050987;28;20108;-75
2020/12/04 04:12:01;;;;;;;3.28;2.97;;;6.60;75.80;;;;;;5050914;28;20098;-75
2020/12/04 04:14:27;;;;;;;3.38;3.08;;;6.70;76.00;;;;;;5033039;28;20025;-75
2020/12/04 04:16:53;;;;;;;2.90;2.70;;;6.60;75.80;;;;;;5030266;28;20338;-75
2020/12/04 04:19:19;;;;;;;3.72;3.42;;;6.60;75.80;;;;;;5029181;28;20025;-74
2020/12/04 04:21:45;;;;;;;3.95;2.92;;;6.60;75.70;;;;;;5030783;28;20071;-75
2020/12/04 04:24:11;;;;;;;3.60;3.30;;;6.60;75.70;;;;;;5030338;28;20033;-75
2020/12/04 04:26:37;;;;;;;3.55;2.83;;;6.60;75.70;;;;;;5030583;28;20116;-74
2020/12/04 04:29:03;;;;;;;3.38;3.08;;;6.60;75.70;;;;;;5029122;28;20025;-74
2020/12/04 04:31:29;;;;;;;2.72;2.53;;;6.60;75.70;;;;;;5030452;28;20080;-75
2020/12/04 04:33:55;;;;;;;3.10;2.80;;;6.60;75.70;;;;;;5028264;28;20148;-74
2020/12/04 04:36:21;;;;;;;4.07;2.83;;;6.60;75.70;;;;;;5028285;28;20512;-74
2020/12/04 04:38:47;;;;;;;3.33;2.75;;;6.60;75.70;;;;;;5029723;28;20116;-75
2020/12/04 04:41:16;;;;;;;3.10;2.85;;;6.60;75.70;;;;;;5027921;28;20022;-74
2020/12/04 04:43:42;;;;;;;4.32;2.65;;;6.60;75.70;;;;;;5028861;28;20048;-75
2020/12/04 04:46:38;;;;;;;2.53;2.33;;;6.60;75.70;;;;;;5027995;28;20045;-75
2020/12/04 04:49:13;;;;;;;2.50;2.30;;;6.60;75.70;;;;;;5028499;28;20038;-74
2020/12/04 04:51:41;;;;;;;2.60;2.40;;;6.60;75.70;;;;;;5028827;28;20036;-75
2020/12/04 04:54:09;;;;;;;2.90;2.70;;;6.60;75.60;;;;;;5028623;28;20048;-74
2020/12/04 04:56:35;;;;;;;2.90;2.60;;;6.60;75.70;;;;;;5012490;28;20128;-74
2020/12/04 04:59:01;;;;;;;2.70;2.50;;;6.60;75.70;;;;;;5028346;28;20121;-74
2020/12/04 05:01:27;;;;;;;3.13;2.83;;;6.60;75.70;;;;;;5012216;28;20037;-74
2020/12/04 05:03:57;;;;;;;2.85;2.65;;;6.60;75.70;;;;;;5030203;28;20499;-73
2020/12/04 05:06:37;;;;;;;2.75;2.50;;;6.60;75.70;;;;;;5028789;28;20044;-74
2020/12/04 05:09:07;;;;;;;3.20;2.75;;;6.60;75.70;;;;;;5028325;28;20030;-74
2020/12/04 05:11:34;;;;;;;2.65;2.45;;;6.60;75.70;;;;;;5028617;28;20029;-75
2020/12/04 05:14:13;;;;;;;2.50;2.30;;;6.60;75.60;;;;;;5029737;28;20029;-74
2020/12/04 05:16:41;;;;;;;2.58;2.38;;;6.60;75.60;;;;;;5011400;28;20033;-75
2020/12/04 05:19:07;;;;;;;2.95;2.70;;;6.70;75.80;;;;;;5029686;28;20029;-75
2020/12/04 05:21:33;;;;;;;2.70;2.50;;;6.70;75.80;;;;;;5028096;28;20037;-74
2020/12/04 05:24:00;;;;;;;1.98;1.80;;;6.60;75.60;;;;;;5028369;28;20033;-74
2020/12/04 05:26:35;;;;;;;2.55;2.35;;;6.70;75.80;;;;;;5028959;28;20025;-74
2020/12/04 05:29:02;;;;;;;2.42;2.22;;;6.70;75.80;;;;;;5029252;28;20037;-74
2020/12/04 05:31:34;;;;;;;3.38;2.50;;;6.70;75.70;;;;;;5028228;28;20340;-74
2020/12/04 05:34:00;;;;;;;2.65;2.45;;;6.70;75.70;;;;;;5029565;28;20033;-74
2020/12/04 05:36:30;;;;;;;2.50;2.30;;;6.70;75.80;;;;;;5029825;28;20061;-74
2020/12/04 05:38:57;;;;;;;2.55;2.35;;;6.60;75.60;;;;;;5029559;28;20453;-75
2020/12/04 05:41:25;;;;;;;4.80;2.28;;;6.70;75.70;;;;;;5028965;28;20187;-73
2020/12/04 05:43:53;;;;;;;2.58;2.15;;;6.70;75.70;;;;;;5023957;28;20078;-74
2020/12/04 05:46:24;;;;;;;2.00;1.80;;;6.60;75.50;;;;;;5026401;28;20053;-74
2020/12/04 05:49:01;;;;;;;2.75;2.40;;;6.70;75.70;;;;;;5011749;28;20049;-74
2020/12/04 05:51:30;;;;;;;2.67;2.35;;;6.70;75.70;;;;;;5011589;28;20067;-75
2020/12/04 05:53:57;;;;;;;2.28;2.10;;;6.70;75.70;;;;;;5025806;28;20083;-73
2020/12/04 05:56:23;;;;;;;2.00;1.90;;;6.60;75.50;;;;;;5022102;28;20117;-75
2020/12/04 05:58:55;;;;;;;2.20;2.03;;;6.60;75.50;;;;;;5017988;28;20284;-74
2020/12/04 06:01:23;;;;;;;2.30;2.10;;;6.70;75.70;;;;;;5009562;28;20036;-74
2020/12/04 06:03:50;;;;;;;2.33;2.13;;;6.70;75.70;;;;;;5020944;28;20041;-75
2020/12/04 06:06:32;;;;;;;6.63;1.95;;;6.70;75.70;;;;;;5010265;28;20496;-74
2020/12/04 06:09:08;;;;;;;2.17;2.03;;;6.70;75.70;;;;;;5014605;28;20041;-74
2020/12/04 06:11:34;;;;;;;2.53;2.05;;;6.70;75.70;;;;;;5030000;28;20390;-75
2020/12/04 06:14:01;;;;;;;1.95;1.85;;;6.70;75.70;;;;;;5014171;28;20450;-75
2020/12/04 06:16:27;;;;;;;2.10;1.92;;;6.70;75.70;;;;;;5011475;28;20513;-74
2020/12/04 06:18:53;;;;;;;2.13;1.92;;;6.70;75.70;;;;;;5025786;28;20533;-75
2020/12/04 06:21:45;;;;;;;2.00;1.90;;;6.70;75.70;;;;;;5024989;28;20763;-76
2020/12/04 06:24:11;;;;;;;1.65;1.55;;;6.70;75.70;;;;;;5027798;28;20083;-74
2020/12/04 06:26:50;;;;;;;2.33;2.13;;;6.70;75.60;;;;;;5012119;28;20129;-76
2020/12/04 06:29:16;;;;;;;1.70;1.60;;;6.70;75.60;;;;;;5007555;28;20124;-75
2020/12/04 06:31:42;;;;;;;1.98;1.77;;;6.70;75.60;;;;;;5008532;28;20080;-75
2020/12/04 06:34:19;;;;;;;2.50;2.03;;;6.70;75.60;;;;;;5009777;28;20444;-75
2020/12/04 06:36:46;;;;;;;2.53;2.00;;;6.70;75.60;;;;;;5022048;28;20481;-74
2020/12/04 06:39:31;;;;;;;1.85;1.75;;;6.70;75.60;;;;;;5023900;28;20124;-75
2020/12/04 06:41:58;;;;;;;2.10;1.90;;;6.70;75.60;;;;;;5021278;28;20033;-74
2020/12/04 06:44:27;;;;;;;2.10;1.90;;;6.70;75.60;;;;;;5018097;28;20113;-75
2020/12/04 06:46:55;;;;;;;1.70;1.60;;;6.70;75.50;;;;;;5024363;28;20157;-75
2020/12/04 06:49:37;;;;;;;1.85;1.75;;;6.70;75.60;;;;;;5023276;28;20432;-76
2020/12/04 06:52:07;;;;;;;1.70;1.60;;;6.70;75.60;;;;;;5027848;28;20511;-74
2020/12/04 06:54:36;;;;;;;1.98;1.80;;;6.70;75.60;;;;;;5027224;28;20038;-75
2020/12/04 06:57:02;;;;;;;1.80;1.70;;;6.70;75.60;;;;;;5026624;28;20037;-76
2020/12/04 06:59:32;;;;;;;1.73;1.63;;;6.70;75.50;;;;;;5026165;28;20022;-75
2020/12/04 07:02:03;;;;;;;1.70;1.60;;;6.70;75.60;;;;;;5016631;28;20169;-73
2020/12/04 07:04:31;;;;;;;1.95;1.73;;;6.70;75.60;;;;;;5005492;28;20466;-75
2020/12/04 07:07:03;;;;;;;1.58;1.48;;;6.60;75.40;;;;;;4991369;28;20180;-76
2020/12/04 07:09:30;;;;;;;1.90;1.80;;;6.70;75.60;;;;;;5023798;28;20041;-76
2020/12/04 07:12:00;;;;;;;1.73;1.63;;;6.70;75.60;;;;;;5028397;28;20033;-76
2020/12/04 07:14:27;;;;;;;1.80;1.70;;;6.60;75.40;;;;;;5017489;28;20473;-75
2020/12/04 07:16:54;;;;;;;1.63;1.52;;;6.70;75.60;;;;;;5019402;28;20516;-75
2020/12/04 07:19:21;;;;;;;1.45;1.35;;;6.70;75.60;;;;;;5027728;28;20495;-77
2020/12/04 07:21:47;;;;;;;1.77;1.67;;;6.70;75.50;;;;;;5026354;28;20041;-77
2020/12/04 07:24:13;;;;;;;2.25;1.85;;;6.70;75.60;;;;;;5026856;28;20503;-75
2020/12/04 07:26:44;;;;;;;1.50;1.40;;;6.70;75.50;;;;;;5028201;28;20037;-78
2020/12/04 07:29:11;;;;;;;1.50;1.30;;;6.70;75.50;;;;;;5016599;28;20481;-79
2020/12/04 07:31:37;;;;;;;1.70;1.58;;;6.70;75.50;;;;;;5023776;28;20030;-78
2020/12/04 07:34:03;;;;;;;1.70;1.60;;;6.70;75.50;;;;;;5007441;28;20040;-78
2020/12/04 07:36:29;;;;;;;1.73;1.40;;;6.70;75.50;;;;;;5026840;28;20033;-79
2020/12/04 07:39:00;;;;;;;1.45;1.30;;;6.70;75.50;;;;;;5028083;28;20123;-79
2020/12/04 07:41:39;;;;;;;1.70;1.60;;;6.70;75.50;;;;;;5027459;28;20037;-78
2020/12/04 07:44:07;;;;;;;1.30;1.20;;;6.70;75.50;;;;;;5028620;28;20033;-76
2020/12/04 07:46:34;;;;;;;2.13;1.90;;;6.70;75.50;;;;;;5006342;28;20097;-74
2020/12/04 07:49:07;;;;;;;1.95;1.75;;;6.70;75.50;;;;;;5019094;28;20533;-79
2020/12/04 07:51:36;;;;;;;1.70;1.60;;;6.70;75.40;;;;;;5028387;28;20438;-77
2020/12/04 07:54:05;;;;;;;1.40;1.30;;;6.70;75.40;;;;;;5020688;28;20450;-76
2020/12/04 07:56:33;;;;;;;1.50;1.40;;;6.70;75.40;;;;;;5024747;28;20033;-76
2020/12/04 07:59:09;;;;;;;2.40;1.50;;;6.70;75.40;;;;;;5008827;28;20030;-77
2020/12/04 08:01:41;;;;;;;2.42;1.75;;;6.70;75.40;;;;;;5026591;28;20029;-77
2020/12/04 08:04:09;;;;;;;1.70;1.60;;;6.70;75.40;;;;;;5009693;28;20034;-77
2020/12/04 08:06:36;;;;;;;1.70;1.60;;;6.70;75.40;;;;;;5027352;28;20119;-77
2020/12/04 08:09:14;;;;;;;1.60;1.50;;;6.70;75.40;;;;;;5025821;28;20514;-77
2020/12/04 08:11:47;;;;;;;3.22;1.40;;;6.70;75.40;;;;;;5010171;28;20333;-77
2020/12/04 08:14:21;;;;;;;1.58;1.48;;;6.70;75.40;;;;;;5027120;28;20041;-76
2020/12/04 08:16:47;;;;;;;1.80;1.52;;;6.70;75.40;;;;;;5017814;28;20025;-76
2020/12/04 08:19:14;;;;;;;1.60;1.50;;;6.70;75.40;;;;;;5023868;28;20033;-78
2020/12/04 08:22:03;;;;;;;1.40;1.30;;;6.70;75.40;;;;;;5025538;28;20033;-76
2020/12/04 08:24:39;;;;;;;2.03;1.83;;;6.70;75.40;;;;;;5019353;28;20423;-77
2020/12/04 08:27:05;;;;;;;1.50;1.40;;;6.70;75.40;;;;;;5026256;28;20086;-78
2020/12/04 08:29:31;;;;;;;2.13;1.58;;;6.70;75.40;;;;;;5006986;28;20034;-77
2020/12/04 08:32:07;;;;;;;2.20;1.60;;;6.70;75.40;;;;;;5022589;28;20039;-78
2020/12/04 08:34:34;;;;;;;2.00;1.55;;;6.70;75.40;;;;;;5019087;28;20091;-79
2020/12/04 08:37:03;;;;;;;1.48;1.35;;;6.80;75.50;;;;;;5006583;28;20109;-77
2020/12/04 08:39:39;;;;;;;2.00;1.80;;;6.70;75.30;;;;;;5020670;28;20108;-77
2020/12/04 08:42:29;;;;;;;6.85;2.05;;;6.70;75.30;;;;;;5026955;28;20076;-76
2020/12/04 08:45:01;;;;;;;2.15;1.80;;;6.80;75.50;;;;;;5025835;28;20156;-77
2020/12/04 08:47:29;;;;;;;3.45;1.77;;;6.80;75.40;;;;;;5025520;28;20068;-76
2020/12/04 08:49:56;;;;;;;1.40;1.30;;;6.80;75.40;;;;;;5025171;28;20052;-76
2020/12/04 08:52:35;;;;;;;5.22;1.63;;;6.80;75.40;;;;;;5026699;28;20563;-77
2020/12/04 08:55:06;;;;;;;2.05;1.38;;;6.90;75.60;;;;;;5026882;28;20033;-77
2020/12/04 08:57:32;;;;;;;2.55;1.65;;;6.80;75.40;;;;;;5026090;28;20485;-76
2020/12/04 08:59:58;;;;;;;1.50;1.40;;;6.80;75.40;;;;;;5025537;28;20057;-76
2020/12/04 09:02:24;;;;;;;1.65;1.55;;;6.80;75.40;;;;;;5026569;28;20203;-78
2020/12/04 09:04:50;;;;;;;3.75;1.60;;;6.90;75.50;;;;;;5026155;28;20188;-76
2020/12/04 09:07:16;;;;;;;2.75;1.83;;;6.90;75.50;;;;;;5026168;28;20505;-76
2020/12/04 09:09:42;;;;;;;4.22;1.65;;;6.90;75.50;;;;;;5025234;28;20030;-77
2020/12/04 09:12:08;;;;;;;1.67;1.58;;;6.90;75.50;;;;;;5025313;28;20120;-76
2020/12/04 09:14:34;;;;;;;2.83;1.25;;;6.90;75.40;;;;;;5025323;28;20139;-76
2020/12/04 09:17:00;;;;;;;2.50;1.35;;;7.00;75.60;;;;;;5026844;28;20083;-76
2020/12/04 09:19:26;;;;;;;4.45;1.65;;;7.00;75.50;;;;;;5025922;28;20033;-76
2020/12/04 09:21:52;;;;;;;2.20;1.50;;;7.00;75.50;;;;;;5026434;28;20038;-77
2020/12/04 09:24:18;;;;;;;1.52;1.40;;;7.00;75.50;;;;;;5026734;28;20030;-76
2020/12/04 09:26:44;;;;;;;5.63;1.90;;;7.10;75.60;;;;;;5026532;28;20018;-77
2020/12/04 09:29:10;;;;;;;2.10;1.50;;;7.20;75.70;;;;;;5025618;28;20029;-76
2020/12/04 09:31:36;;;;;;;2.78;1.58;;;7.20;75.70;;;;;;5026612;28;20113;-76
2020/12/04 09:34:02;;;;;;;2.53;1.45;;;7.20;75.60;;;;;;5025130;28;20037;-76
2020/12/04 09:36:28;;;;;;;1.98;1.38;;;7.20;75.60;;;;;;5023599;28;20396;-76
2020/12/04 09:38:54;;;;;;;4.85;1.70;;;7.30;75.70;;;;;;5005812;28;20033;-76
2020/12/04 09:41:20;;;;;;;2.15;1.23;;;7.30;75.70;;;;;;5024119;28;20029;-77
2020/12/04 09:43:46;;;;;;;2.22;1.45;;;7.30;75.60;;;;;;5025944;28;20040;-76
2020/12/04 09:46:12;;;;;;;4.25;1.48;;;7.40;75.70;;;;;;5023492;28;20041;-76
2020/12/04 09:48:38;;;;;;;3.03;1.17;;;7.40;75.60;;;;;;5024763;28;20175;-76
2020/12/04 09:51:04;;;;;;;1.92;1.27;;;7.40;75.60;;;;;;5024047;28;20437;-76
2020/12/04 09:53:30;;;;;;;1.90;1.60;;;7.50;75.70;;;;;;5025794;28;20438;-76
2020/12/04 09:55:56;;;;;;;2.60;1.45;;;7.50;75.60;;;;;;5024111;28;20120;-75
2020/12/04 09:58:22;;;;;;;2.97;1.58;;;7.60;76.30;;;;;;5023028;28;20037;-76
2020/12/04 10:00:48;;;;;;;3.13;1.70;;;7.60;75.70;;;;;;5024475;28;20037;-76
2020/12/04 10:03:14;;;;;;;2.05;1.40;;;7.60;75.70;;;;;;5025485;28;20349;-77
2020/12/04 10:05:40;;;;;;;2.10;1.55;;;7.70;75.80;;;;;;5025286;28;20435;-76
2020/12/04 10:08:06;;;;;;;1.73;1.30;;;7.70;75.70;;;;;;5025735;28;20030;-77
2020/12/04 10:10:32;;;;;;;4.43;1.52;;;7.70;75.70;;;;;;5025731;28;20031;-76
2020/12/04 10:12:58;;;;;;;4.13;1.58;;;7.80;75.80;;;;;;5025749;28;20045;-76
2020/12/04 10:15:24;;;;;;;3.58;1.60;;;7.80;75.70;;;;;;5025243;28;20029;-76
2020/12/04 10:17:50;;;;;;;5.68;1.77;;;7.90;75.80;;;;;;5025706;28;20084;-76
2020/12/04 10:20:16;;;;;;;3.28;1.80;;;7.90;75.80;;;;;;5025336;28;20061;-76
2020/12/04 10:22:43;;;;;;;3.13;1.75;;;8.00;75.90;;;;;;5025804;28;20076;-76
2020/12/04 10:25:09;;;;;;;1.88;1.35;;;8.00;75.80;;;;;;5024094;28;20430;-77
2020/12/04 10:27:35;;;;;;;1.88;1.48;;;8.00;75.80;;;;;;5024219;28;20044;-77
2020/12/04 10:30:00;;;;;;;5.93;1.73;;;8.10;75.90;;;;;;5025265;28;20188;-77
2020/12/04 10:32:26;;;;;;;3.50;1.65;;;8.10;75.80;;;;;;5025583;28;20109;-77
2020/12/04 10:34:52;;;;;;;1.73;1.55;;;8.10;75.70;;;;;;5025297;28;20485;-77
2020/12/04 10:37:18;;;;;;;3.15;1.67;;;8.10;75.60;;;;;;5006711;28;20040;-76
2020/12/04 10:39:46;;;;;;;2.20;1.15;;;8.20;75.80;;;;;;5023890;28;20048;-79
2020/12/04 10:42:12;;;;;;;5.30;2.65;;;8.20;75.80;;;;;;5024238;28;20033;-80
2020/12/04 10:44:38;;;;;;;6.15;1.83;;;8.20;75.80;;;;;;5023564;28;20043;-77
2020/12/04 10:47:04;;;;;;;3.65;2.17;;;8.30;76.10;;;;;;5007355;28;20052;-77
2020/12/04 10:49:30;;;;;;;6.90;2.42;;;8.40;76.30;;;;;;5028578;28;20128;-76
2020/12/04 10:51:57;;;;;;;3.20;2.22;;;8.40;76.30;;;;;;5022117;28;20116;-79
2020/12/04 10:54:23;;;;;;;4.60;1.95;;;8.50;76.40;;;;;;5024815;28;20527;-76
2020/12/04 10:56:56;;;;;;;6.53;2.75;;;8.60;76.50;;;;;;5027937;28;20130;-76
2020/12/04 10:59:23;;;;;;;6.07;1.70;;;8.70;76.50;;;;;;5027149;28;20484;-76
2020/12/04 11:02:06;;;;;;;5.53;1.85;;;8.70;76.40;;;;;;5028279;28;20214;-77
2020/12/04 11:07:17;;;;;;;9.75;2.30;;;8.80;76.50;;;;;;5028779;28;19909;-77
2020/12/04 11:09:43;;;;;;;6.80;2.40;;;8.90;76.40;;;;;;5027575;28;20037;-77
2020/12/04 11:12:09;;;;;;;6.65;1.90;;;8.90;76.30;;;;;;5026178;28;20030;-78
2020/12/04 11:14:37;;;;;;;3.60;1.77;;;8.90;76.30;;;;;;5028651;28;20041;-78
2020/12/04 11:17:03;;;;;;;4.68;1.90;;;9.00;76.40;;;;;;5029104;28;20041;-76
2020/12/04 11:19:29;;;;;;;3.65;1.77;;;9.00;76.40;;;;;;5028427;28;20041;-76
2020/12/04 11:21:55;;;;;;;5.65;2.65;;;9.00;76.40;;;;;;5027503;28;20033;-76
2020/12/04 11:24:21;;;;;;;5.80;2.63;;;9.00;76.40;;;;;;5027080;28;20327;-76
2020/12/04 11:26:47;;;;;;;6.43;2.63;;;9.10;76.60;;;;;;5028481;28;20025;-77
2020/12/04 11:29:13;;;;;;;3.83;2.20;;;9.10;76.50;;;;;;5009163;28;20052;-77
2020/12/04 11:31:39;;;;;;;3.55;2.50;;;9.10;76.40;;;;;;5009106;28;20397;-77
2020/12/04 11:34:05;;;;;;;3.67;1.92;;;9.10;76.40;;;;;;5027293;28;20521;-78
2020/12/04 11:36:34;;;;;;;5.53;2.20;;;9.10;76.20;;;;;;5026870;28;20087;-78
2020/12/04 11:39:03;;;;;;;6.82;2.42;;;9.10;76.20;;;;;;5025801;28;20053;-78
2020/12/04 11:41:31;;;;;;;4.47;2.22;;;9.10;76.10;;;;;;5026783;28;20349;-77
2020/12/04 11:43:57;;;;;;;3.65;2.20;;;9.10;76.10;;;;;;5023367;28;20127;-79
2020/12/04 11:46:23;;;;;;;6.28;2.58;;;9.10;76.10;;;;;;5027152;28;20037;-76
2020/12/04 11:48:49;;;;;;;4.00;2.35;;;9.20;76.20;;;;;;5027656;28;20033;-76
2020/12/04 11:51:16;;;;;;;5.53;1.90;;;9.10;76.50;;;;;;5025280;28;20036;-76
2020/12/04 11:53:42;;;;;;;5.45;2.47;;;9.20;76.10;;;;;;5025500;28;20041;-76
2020/12/04 11:56:08;;;;;;;4.40;2.42;;;9.20;76.00;;;;;;5027160;28;20179;-76
2020/12/04 11:58:34;;;;;;;5.07;2.17;;;9.20;76.00;;;;;;5026986;28;20026;-76
2020/12/04 12:00:59;;;;;;;5.82;2.40;;;9.20;75.90;;;;;;5027576;28;20489;-77
2020/12/04 12:03:25;;;;;;;2.90;2.05;;;9.30;76.00;;;;;;5027612;28;20139;-76
2020/12/04 12:05:51;;;;;;;3.97;1.88;;;9.30;76.00;;;;;;5028125;28;20392;-76
2020/12/04 12:08:19;;;;;;;3.45;1.85;;;9.40;76.10;;;;;;5042018;28;20196;-77
2020/12/04 12:10:45;;;;;;;5.45;2.63;;;9.40;76.00;;;;;;5045855;28;20115;-76
2020/12/04 12:13:11;;;;;;;6.20;2.65;;;9.40;75.90;;;;;;5046432;28;20120;-77
2020/12/04 12:15:37;;;;;;;3.63;2.33;;;9.40;75.80;;;;;;5047502;28;20120;-76
2020/12/04 12:18:03;;;;;;;6.35;2.45;;;9.40;75.70;;;;;;5044681;28;20035;-77
2020/12/04 12:20:29;;;;;;;8.00;3.10;;;9.40;75.70;;;;;;5034914;28;20112;-76
2020/12/04 12:22:55;;;;;;;4.70;1.88;;;9.40;75.60;;;;;;5028647;28;20052;-76
2020/12/04 12:25:21;;;;;;;5.50;2.53;;;9.40;75.60;;;;;;5024935;28;20033;-75
2020/12/04 12:27:47;;;;;;;8.15;2.22;;;9.40;75.60;;;;;;5027562;28;20033;-76
2020/12/04 12:30:13;;;;;;;2.65;1.92;;;9.40;75.50;;;;;;5009314;28;20109;-75
2020/12/04 12:32:39;;;;;;;7.75;2.10;;;9.40;75.50;;;;;;5026167;28;20036;-76
2020/12/04 12:35:11;;;;;;;4.13;2.13;;;9.40;75.40;;;;;;5027386;28;20396;-76
2020/12/04 12:37:38;;;;;;;7.75;2.25;;;9.40;75.30;;;;;;5027294;28;20130;-76
2020/12/04 12:40:04;;;;;;;7.00;3.13;;;9.40;75.30;;;;;;5027166;28;20497;-76
2020/12/04 12:42:31;;;;;;;5.45;2.67;;;9.40;75.30;;;;;;5027312;28;20528;-76
2020/12/04 12:44:58;;;;;;;5.78;3.03;;;9.40;75.40;;;;;;5026664;28;20030;-76
2020/12/04 12:47:25;;;;;;;8.52;2.92;;;9.40;75.50;;;;;;5025264;28;20159;-74
2020/12/04 12:49:51;;;;;;;9.52;2.58;;;9.40;75.40;;;;;;5026943;28;20101;-75
2020/12/04 12:52:17;;;;;;;6.70;2.78;;;9.40;75.40;;;;;;5027127;28;20105;-75
2020/12/04 12:54:43;;;;;;;4.55;2.53;;;9.40;75.40;;;;;;5026859;28;20091;-75
2020/12/04 12:57:10;;;;;;;7.45;2.95;;;9.40;75.40;;;;;;5025999;28;20179;-75
2020/12/04 12:59:36;;;;;;;8.65;2.38;;;9.40;75.40;;;;;;5025296;28;20602;-75
2020/12/04 13:02:02;;;;;;;11.07;2.80;;;9.40;75.50;;;;;;5027056;28;20136;-75